Time;durP1;ratioP1;P1;durP2;ratioP2;P2;SDS_P1;SDS_P2;PMS_P1;PMS_P2;Temp;Humidity;BMP_temperature;BMP_pressure;BME280_temperature;BME280_humidity;BME280_pressure;Samples;Min_cycle;Max_cycle;Signal;HPM_P1;HPM_P2
2021/09/22 00:02:07;;;;;;;14.40;9.02;;;13.40;67.20;;;;;;5046233;28;20263;-39
2021/09/22 00:04:51;;;;;;;13.82;9.27;;;13.40;67.20;;;;;;5046253;28;20087;-39
2021/09/22 00:07:36;;;;;;;15.25;8.98;;;13.30;67.50;;;;;;5047247;28;20036;-40
2021/09/22 00:10:20;;;;;;;11.05;8.43;;;13.30;67.70;;;;;;5046322;28;20039;-40
2021/09/22 00:13:04;;;;;;;13.55;9.10;;;13.40;67.50;;;;;;5046251;28;20084;-40
2021/09/22 00:15:48;;;;;;;11.38;8.40;;;13.40;67.30;;;;;;5046556;28;20247;-39
2021/09/22 00:18:33;;;;;;;12.82;8.23;;;13.40;67.40;;;;;;5045987;28;20089;-39
2021/09/22 00:21:17;;;;;;;11.27;7.97;;;13.30;67.30;;;;;;5045866;28;20048;-39
2021/09/22 00:24:02;;;;;;;10.77;8.07;;;13.40;67.30;;;;;;5045807;28;20071;-40
2021/09/22 00:26:46;;;;;;;12.38;8.65;;;13.40;67.30;;;;;;5045886;28;20068;-40
2021/09/22 00:29:30;;;;;;;10.73;8.43;;;13.30;67.50;;;;;;5046019;28;20060;-40
2021/09/22 00:32:14;;;;;;;11.10;8.30;;;13.40;67.50;;;;;;5045795;28;20028;-39
2021/09/22 00:34:58;;;;;;;11.23;8.45;;;13.30;67.50;;;;;;5045677;28;20025;-40
2021/09/22 00:41:24;;;;;;;9.87;7.60;;;13.30;68.00;;;;;;5046016;28;20032;-40
2021/09/22 00:44:08;;;;;;;13.55;9.00;;;13.30;68.10;;;;;;5045555;28;20028;-40
2021/09/22 00:46:53;;;;;;;13.57;9.20;;;13.30;68.40;;;;;;5045478;28;20076;-39
2021/09/22 00:49:37;;;;;;;11.82;8.43;;;13.30;68.70;;;;;;5045891;28;20256;-39
2021/09/22 00:52:21;;;;;;;10.77;7.95;;;13.30;68.60;;;;;;5045514;28;20040;-40
2021/09/22 00:55:06;;;;;;;11.93;8.23;;;13.30;68.60;;;;;;5045465;28;20064;-39
2021/09/22 00:57:51;;;;;;;10.90;8.13;;;13.30;68.50;;;;;;5030947;28;20075;-40
2021/09/22 01:00:37;;;;;;;13.50;8.50;;;13.40;68.30;;;;;;5045534;28;20367;-39
2021/09/22 01:03:22;;;;;;;13.07;8.02;;;13.30;68.50;;;;;;5045428;28;20056;-39
2021/09/22 01:06:06;;;;;;;12.07;8.80;;;13.30;68.60;;;;;;5045425;28;20032;-39
2021/09/22 01:08:52;;;;;;;11.70;7.78;;;13.30;68.60;;;;;;5045015;28;20071;-39
2021/09/22 01:11:36;;;;;;;13.57;8.07;;;13.30;68.70;;;;;;5045041;28;20383;-40
2021/09/22 01:14:24;;;;;;;11.77;8.32;;;13.30;68.80;;;;;;5045058;28;20214;-40
2021/09/22 01:17:08;;;;;;;11.57;8.32;;;13.40;69.00;;;;;;5044954;28;20025;-40
2021/09/22 01:19:54;;;;;;;11.27;8.30;;;13.30;69.30;;;;;;5044759;28;20351;-40
2021/09/22 01:22:38;;;;;;;12.23;8.48;;;13.40;69.20;;;;;;5045027;28;20028;-40
2021/09/22 01:25:22;;;;;;;11.52;7.90;;;13.40;69.10;;;;;;5029813;28;20060;-40
2021/09/22 01:28:06;;;;;;;12.70;8.55;;;13.40;68.80;;;;;;5044808;28;20382;-40
2021/09/22 01:30:50;;;;;;;12.57;8.23;;;13.40;68.80;;;;;;5044611;28;20225;-39
2021/09/22 01:33:35;;;;;;;11.15;8.18;;;13.40;68.70;;;;;;5045006;28;20031;-39
2021/09/22 01:36:19;;;;;;;11.30;7.82;;;13.40;68.80;;;;;;5044984;28;20035;-40
2021/09/22 01:39:04;;;;;;;14.05;8.73;;;13.40;68.90;;;;;;5044908;28;20094;-39
2021/09/22 01:41:51;;;;;;;12.23;8.68;;;13.40;68.90;;;;;;5044630;28;20071;-40
2021/09/22 01:44:36;;;;;;;11.35;8.55;;;13.40;68.80;;;;;;5043964;28;20244;-39
2021/09/22 01:47:20;;;;;;;11.25;8.38;;;13.40;68.90;;;;;;5044219;28;20067;-40
2021/09/22 01:50:15;;;;;;;12.20;9.13;;;13.40;68.80;;;;;;5044343;28;20025;-39
2021/09/22 01:52:59;;;;;;;13.43;8.90;;;13.50;68.60;;;;;;5044337;28;20056;-40
2021/09/22 01:59:25;;;;;;;13.50;8.33;;;13.50;68.30;;;;;;5044581;28;20008;-39
2021/09/22 02:02:09;;;;;;;13.27;8.68;;;13.40;68.20;;;;;;5044102;28;20649;-39
2021/09/22 02:04:53;;;;;;;12.63;8.27;;;13.40;68.30;;;;;;5044015;28;20071;-40
2021/09/22 02:07:37;;;;;;;12.50;8.63;;;13.40;68.30;;;;;;5044499;28;20305;-39
2021/09/22 02:10:22;;;;;;;12.43;8.60;;;13.40;68.20;;;;;;5044141;28;20339;-40
2021/09/22 02:13:06;;;;;;;10.60;8.05;;;13.40;68.30;;;;;;5044042;28;20036;-40
2021/09/22 02:15:50;;;;;;;12.93;8.25;;;13.40;68.20;;;;;;5044428;28;20036;-40
2021/09/22 02:18:34;;;;;;;12.13;8.80;;;13.40;68.10;;;;;;5044421;28;20391;-39
2021/09/22 02:21:19;;;;;;;12.27;8.32;;;13.40;67.90;;;;;;5044141;28;20075;-40
2021/09/22 02:24:03;;;;;;;13.32;9.15;;;13.40;67.90;;;;;;5043556;28;20257;-40
2021/09/22 02:26:48;;;;;;;13.05;8.75;;;13.40;67.90;;;;;;5043943;28;20068;-40
2021/09/22 02:29:32;;;;;;;11.65;8.20;;;13.40;67.80;;;;;;5043670;28;20037;-40
2021/09/22 02:32:17;;;;;;;14.90;9.15;;;13.40;67.70;;;;;;5043840;28;20040;-40
2021/09/22 02:35:01;;;;;;;12.32;8.57;;;13.30;67.70;;;;;;5043712;28;20064;-40
2021/09/22 02:41:27;;;;;;;11.50;8.50;;;13.30;68.10;;;;;;5044024;28;20101;-40
2021/09/22 02:44:11;;;;;;;10.80;8.27;;;13.20;68.00;;;;;;5043680;28;20048;-39
2021/09/22 02:46:55;;;;;;;10.55;8.38;;;13.30;67.70;;;;;;5043577;28;20125;-40
2021/09/22 02:49:40;;;;;;;11.38;8.23;;;13.30;67.40;;;;;;5043968;28;20064;-39
2021/09/22 02:52:24;;;;;;;12.77;8.77;;;13.20;67.40;;;;;;5043614;28;20059;-39
2021/09/22 02:55:08;;;;;;;12.93;8.05;;;13.20;67.40;;;;;;5043567;28;20040;-40
2021/09/22 02:57:52;;;;;;;12.43;8.80;;;13.20;67.40;;;;;;5046785;28;20056;-40
2021/09/22 03:00:37;;;;;;;12.93;8.00;;;13.10;67.50;;;;;;5047898;28;20073;-40
2021/09/22 03:03:21;;;;;;;11.85;8.88;;;13.20;67.30;;;;;;5047391;28;20093;-39
2021/09/22 03:06:05;;;;;;;13.05;8.75;;;13.10;67.50;;;;;;5047321;28;20076;-40
2021/09/22 03:08:50;;;;;;;12.65;8.93;;;13.10;67.80;;;;;;5047374;28;20060;-40
2021/09/22 03:11:34;;;;;;;11.85;8.32;;;13.10;67.80;;;;;;5047386;28;20044;-39
2021/09/22 03:14:18;;;;;;;11.80;8.50;;;13.00;67.90;;;;;;5047316;28;20024;-39
2021/09/22 03:17:02;;;;;;;11.55;8.48;;;13.00;68.00;;;;;;5047241;28;20028;-40
2021/09/22 03:23:28;;;;;;;10.77;7.93;;;12.90;67.80;;;;;;5051725;28;20407;-40
2021/09/22 03:26:12;;;;;;;13.13;8.25;;;12.90;67.60;;;;;;5046960;28;20095;-40
2021/09/22 03:28:56;;;;;;;11.68;7.85;;;12.90;67.60;;;;;;5046922;28;20249;-40
2021/09/22 03:31:42;;;;;;;12.80;8.80;;;12.90;67.50;;;;;;5047366;28;20058;-39
2021/09/22 03:34:26;;;;;;;13.55;8.20;;;12.90;67.30;;;;;;5046968;28;20040;-40
2021/09/22 03:37:11;;;;;;;14.05;8.23;;;12.90;67.40;;;;;;5046916;28;20083;-40
2021/09/22 03:39:55;;;;;;;11.55;8.30;;;12.90;67.10;;;;;;5047196;28;20358;-39
2021/09/22 03:42:39;;;;;;;12.70;8.07;;;12.80;67.30;;;;;;5046581;28;20048;-39
2021/09/22 03:45:23;;;;;;;12.77;8.48;;;12.80;67.20;;;;;;5046618;28;20080;-40
2021/09/22 03:48:08;;;;;;;11.20;8.20;;;12.90;67.10;;;;;;5046701;28;20041;-40
2021/09/22 03:50:52;;;;;;;11.30;8.07;;;12.80;67.20;;;;;;5046478;28;20064;-39
2021/09/22 03:53:36;;;;;;;10.63;7.95;;;12.70;67.30;;;;;;5046676;28;20056;-40
2021/09/22 03:56:21;;;;;;;11.25;7.85;;;12.80;67.10;;;;;;5046410;28;20067;-39
2021/09/22 03:59:05;;;;;;;12.65;8.30;;;12.80;67.00;;;;;;5046406;28;20024;-39
2021/09/22 04:01:49;;;;;;;10.38;7.82;;;12.70;67.10;;;;;;5046262;28;20216;-39
2021/09/22 04:04:34;;;;;;;12.02;8.25;;;12.70;67.10;;;;;;5046657;28;20036;-40
2021/09/22 04:07:18;;;;;;;12.18;8.43;;;12.60;67.20;;;;;;5046366;28;20335;-39
2021/09/22 04:10:02;;;;;;;11.50;7.63;;;12.60;67.20;;;;;;5045555;28;20039;-39
2021/09/22 04:12:46;;;;;;;11.68;8.40;;;12.60;66.80;;;;;;5046214;28;20064;-39
2021/09/22 04:15:31;;;;;;;13.00;8.48;;;12.70;66.70;;;;;;5046567;28;20051;-40
2021/09/22 04:18:15;;;;;;;11.55;8.00;;;12.60;66.70;;;;;;5046310;28;20029;-39
2021/09/22 04:20:59;;;;;;;13.75;8.23;;;12.50;67.10;;;;;;5046284;28;20036;-39
2021/09/22 04:23:44;;;;;;;14.23;8.73;;;12.50;67.00;;;;;;5045131;28;20087;-39
2021/09/22 04:26:28;;;;;;;13.02;8.60;;;12.50;67.00;;;;;;5045981;28;20048;-39
2021/09/22 04:29:12;;;;;;;12.00;8.27;;;12.50;66.80;;;;;;5045927;28;20024;-39
2021/09/22 04:31:56;;;;;;;12.85;8.70;;;12.40;66.80;;;;;;5045801;28;20023;-40
2021/09/22 04:34:41;;;;;;;14.13;7.72;;;12.40;66.80;;;;;;5046162;28;20249;-40
2021/09/22 04:37:28;;;;;;;13.13;7.88;;;12.40;66.80;;;;;;5045863;28;20075;-40
2021/09/22 04:40:12;;;;;;;11.13;8.20;;;12.40;66.80;;;;;;5044836;28;20032;-39
2021/09/22 04:42:57;;;;;;;12.20;8.18;;;12.40;66.90;;;;;;5046057;28;20091;-39
2021/09/22 04:45:42;;;;;;;13.02;7.72;;;12.40;66.70;;;;;;5045986;28;20071;-40
2021/09/22 04:48:26;;;;;;;15.05;7.80;;;12.40;66.70;;;;;;5045859;28;20056;-39
2021/09/22 04:51:11;;;;;;;13.98;7.93;;;12.30;66.80;;;;;;5045343;28;20032;-39
2021/09/22 04:53:55;;;;;;;10.88;8.18;;;12.20;67.00;;;;;;5045280;28;20056;-40
2021/09/22 04:56:39;;;;;;;14.48;7.95;;;12.30;66.70;;;;;;5045234;28;20063;-39
2021/09/22 04:59:23;;;;;;;13.13;8.30;;;12.30;66.70;;;;;;5045137;28;20048;-39
2021/09/22 05:02:08;;;;;;;13.32;8.77;;;12.20;66.80;;;;;;5045123;28;20066;-39
2021/09/22 05:04:52;;;;;;;14.88;9.02;;;12.20;67.10;;;;;;5044856;28;20032;-40
2021/09/22 05:07:36;;;;;;;16.15;8.57;;;12.20;67.10;;;;;;5045404;28;20035;-40
2021/09/22 05:10:20;;;;;;;11.70;8.20;;;12.20;67.00;;;;;;5045019;28;20032;-39
2021/09/22 05:13:07;;;;;;;13.02;8.93;;;12.20;67.00;;;;;;5045540;28;20039;-39
2021/09/22 05:15:51;;;;;;;12.82;8.90;;;12.20;66.90;;;;;;5044815;28;20055;-39
2021/09/22 05:18:35;;;;;;;13.85;8.80;;;12.20;66.90;;;;;;5043732;28;20028;-39
2021/09/22 05:21:19;;;;;;;15.55;8.90;;;12.10;66.90;;;;;;5044703;28;20213;-40
2021/09/22 05:24:05;;;;;;;15.80;8.85;;;12.10;67.10;;;;;;5044399;28;20061;-40
2021/09/22 05:26:49;;;;;;;14.98;9.63;;;12.10;67.10;;;;;;5044759;28;20079;-40
2021/09/22 05:29:34;;;;;;;14.13;9.13;;;12.10;67.30;;;;;;5044401;28;20028;-39
2021/09/22 05:32:18;;;;;;;14.90;9.18;;;12.00;67.50;;;;;;5044477;28;20029;-40
2021/09/22 05:35:03;;;;;;;14.75;9.60;;;12.10;67.50;;;;;;5044378;28;20033;-42
2021/09/22 05:41:28;;;;;;;14.00;8.63;;;12.10;67.60;;;;;;5051211;28;20391;-40
2021/09/22 05:44:12;;;;;;;13.73;8.93;;;12.10;67.90;;;;;;5044156;28;20032;-39
2021/09/22 05:46:57;;;;;;;15.05;9.93;;;12.10;67.80;;;;;;5044157;28;20028;-40
2021/09/22 05:49:41;;;;;;;12.90;9.13;;;12.20;67.70;;;;;;5044453;28;20028;-40
2021/09/22 05:52:25;;;;;;;18.33;10.10;;;12.20;67.90;;;;;;5043164;28;20040;-39
2021/09/22 05:55:10;;;;;;;14.98;9.45;;;12.20;68.30;;;;;;5044165;28;20064;-39
2021/09/22 05:57:54;;;;;;;17.70;10.45;;;12.20;68.50;;;;;;5044453;28;20092;-39
2021/09/22 06:00:38;;;;;;;13.88;9.73;;;12.30;68.50;;;;;;5044243;28;20343;-40
2021/09/22 06:03:22;;;;;;;15.50;10.70;;;12.30;68.80;;;;;;5044214;28;20371;-39
2021/09/22 06:06:07;;;;;;;16.05;10.80;;;12.40;68.90;;;;;;5044002;28;20201;-40
2021/09/22 06:08:51;;;;;;;17.35;10.60;;;12.40;69.10;;;;;;5043610;28;20044;-40
2021/09/22 06:11:36;;;;;;;16.25;10.55;;;12.50;69.10;;;;;;5043765;28;20044;-40
2021/09/22 06:14:20;;;;;;;18.00;10.93;;;12.60;69.40;;;;;;5043836;28;20029;-39
2021/09/22 06:17:04;;;;;;;15.40;10.98;;;12.60;69.50;;;;;;5043808;28;20027;-40
2021/09/22 06:23:30;;;;;;;24.20;12.93;;;12.80;69.70;;;;;;5048321;28;20040;-40
2021/09/22 06:26:14;;;;;;;20.85;12.35;;;13.00;69.70;;;;;;5043532;28;20252;-40
2021/09/22 06:28:58;;;;;;;24.67;12.93;;;13.10;69.40;;;;;;5043553;28;20080;-40
2021/09/22 06:35:05;;;;;;;18.90;12.48;;;13.40;69.30;;;;;;5043967;28;20045;-40
2021/09/22 06:41:32;;;;;;;21.85;12.52;;;13.90;68.60;;;;;;5043856;28;20079;-40
2021/09/22 06:44:17;;;;;;;17.30;12.52;;;14.10;68.00;;;;;;5043430;28;20093;-40
2021/09/22 06:47:01;;;;;;;23.00;12.90;;;14.30;67.20;;;;;;5043321;28;20067;-42
2021/09/22 06:53:26;;;;;;;20.90;12.93;;;14.40;65.80;;;;;;5043750;28;20055;-40
2021/09/22 06:56:10;;;;;;;20.13;13.02;;;14.40;65.70;;;;;;5043275;28;20078;-40
2021/09/22 06:58:54;;;;;;;26.48;13.38;;;14.40;65.90;;;;;;5043245;28;20217;-40
2021/09/22 07:01:40;;;;;;;20.48;13.23;;;14.60;66.00;;;;;;5043878;28;20095;-40
2021/09/22 07:04:25;;;;;;;25.15;13.57;;;14.80;65.60;;;;;;5043396;28;20080;-40
2021/09/22 07:07:09;;;;;;;18.67;13.15;;;14.90;65.20;;;;;;5043309;28;20221;-40
2021/09/22 07:09:53;;;;;;;22.23;13.20;;;15.00;65.20;;;;;;5043806;28;20067;-40
2021/09/22 07:12:38;;;;;;;17.10;12.75;;;15.10;65.20;;;;;;5043692;28;20266;-41
2021/09/22 07:15:22;;;;;;;24.20;13.57;;;15.20;64.90;;;;;;5043471;28;20037;-40
2021/09/22 07:18:06;;;;;;;16.13;12.65;;;15.30;64.60;;;;;;5043437;28;20217;-41
2021/09/22 07:20:51;;;;;;;18.30;12.40;;;15.40;64.40;;;;;;5042939;28;20224;-40
2021/09/22 07:23:35;;;;;;;21.33;13.40;;;15.50;63.70;;;;;;5043083;28;20032;-40
2021/09/22 07:26:19;;;;;;;18.15;12.73;;;15.60;63.30;;;;;;5043723;28;20041;-41
2021/09/22 07:29:04;;;;;;;18.05;12.25;;;15.80;63.10;;;;;;5043049;28;20029;-40
2021/09/22 07:35:29;;;;;;;23.83;13.15;;;16.00;60.90;;;;;;5043290;28;20241;-40
2021/09/22 07:38:14;;;;;;;17.95;12.38;;;16.10;61.00;;;;;;5042997;28;20343;-41
2021/09/22 07:40:58;;;;;;;17.25;11.90;;;16.10;59.60;;;;;;5042864;28;20036;-40
2021/09/22 07:43:42;;;;;;;19.80;12.57;;;16.20;59.60;;;;;;5046274;28;20032;-40
2021/09/22 07:46:26;;;;;;;16.45;11.88;;;16.30;59.60;;;;;;5046748;28;20105;-41
2021/09/22 07:49:11;;;;;;;17.25;12.45;;;16.40;58.90;;;;;;5046612;28;20083;-41
2021/09/22 07:51:55;;;;;;;21.17;13.00;;;16.50;59.20;;;;;;5046967;28;20067;-40
2021/09/22 07:54:40;;;;;;;24.02;13.10;;;16.60;59.00;;;;;;5046820;28;20124;-40
2021/09/22 07:57:24;;;;;;;25.52;13.35;;;16.50;59.20;;;;;;5046722;28;20140;-40
2021/09/22 08:00:09;;;;;;;21.05;12.63;;;16.40;58.20;;;;;;5046259;28;20431;-40
2021/09/22 08:02:53;;;;;;;17.17;11.32;;;16.40;58.70;;;;;;5046024;28;20044;-40
2021/09/22 08:05:39;;;;;;;20.45;11.65;;;16.50;58.50;;;;;;5046213;28;20048;-41
2021/09/22 08:08:23;;;;;;;18.70;11.60;;;16.50;57.90;;;;;;5045154;28;20056;-40
2021/09/22 08:11:07;;;;;;;16.48;11.45;;;16.60;57.80;;;;;;5046150;28;20029;-40
2021/09/22 08:13:51;;;;;;;15.60;10.27;;;16.50;57.50;;;;;;5045850;28;20084;-40
2021/09/22 08:16:36;;;;;;;12.48;9.63;;;16.50;56.30;;;;;;5046374;28;20048;-40
2021/09/22 08:19:20;;;;;;;13.15;9.95;;;16.60;56.30;;;;;;5046004;28;20059;-40
2021/09/22 08:22:05;;;;;;;14.70;9.85;;;16.50;55.80;;;;;;5045777;28;20095;-40
2021/09/22 08:24:49;;;;;;;16.13;9.30;;;16.60;56.10;;;;;;5045903;28;20044;-40
2021/09/22 08:27:33;;;;;;;16.25;9.77;;;16.60;56.40;;;;;;5046088;28;20028;-40
2021/09/22 08:30:18;;;;;;;12.38;8.75;;;16.60;55.90;;;;;;5045703;28;20041;-40
2021/09/22 08:33:02;;;;;;;12.32;9.05;;;16.60;55.70;;;;;;5045724;28;20031;-40
2021/09/22 08:35:46;;;;;;;12.98;8.77;;;16.50;55.30;;;;;;5045697;28;20205;-39
2021/09/22 08:38:30;;;;;;;11.27;8.75;;;16.60;55.80;;;;;;5045632;28;20375;-40
2021/09/22 08:41:15;;;;;;;13.20;9.73;;;16.60;54.50;;;;;;5045473;28;20040;-40
2021/09/22 08:44:03;;;;;;;14.55;9.45;;;16.70;55.30;;;;;;5044571;28;20024;-40
2021/09/22 08:46:48;;;;;;;15.00;8.88;;;16.70;55.40;;;;;;5045309;28;20068;-40
2021/09/22 08:49:32;;;;;;;11.07;8.38;;;16.80;55.10;;;;;;5045813;28;20020;-40
2021/09/22 08:52:16;;;;;;;12.45;9.13;;;16.80;54.60;;;;;;5045487;28;20055;-40
2021/09/22 08:55:00;;;;;;;10.75;8.73;;;16.90;54.50;;;;;;5044779;28;20035;-40
2021/09/22 08:57:45;;;;;;;16.15;9.30;;;16.90;54.60;;;;;;5045254;28;20071;-40
2021/09/22 09:00:29;;;;;;;13.02;9.07;;;17.00;53.50;;;;;;5045202;28;20091;-40
2021/09/22 09:03:33;;;;;;;13.38;8.90;;;17.10;54.00;;;;;;5045113;28;20064;-40
2021/09/22 09:06:34;;;;;;;10.75;7.63;;;17.10;53.30;;;;;;5044930;28;20143;-40
2021/09/22 09:09:18;;;;;;;10.13;8.05;;;17.10;52.20;;;;;;5046264;28;20074;-40
2021/09/22 09:12:13;;;;;;;11.13;7.55;;;17.20;53.00;;;;;;5044834;28;20029;-40
2021/09/22 09:15:01;;;;;;;10.50;7.57;;;17.30;53.80;;;;;;5044704;28;20037;-40
2021/09/22 09:17:46;;;;;;;13.52;7.65;;;17.30;53.60;;;;;;5045461;28;20032;-40
2021/09/22 09:20:31;;;;;;;12.15;7.60;;;17.40;52.70;;;;;;5044763;28;20394;-40
2021/09/22 09:23:17;;;;;;;13.40;8.07;;;17.50;52.50;;;;;;5044564;28;20044;-40
2021/09/22 09:26:04;;;;;;;13.85;7.40;;;17.60;53.00;;;;;;5044596;28;20220;-41
2021/09/22 09:32:29;;;;;;;11.18;6.30;;;17.80;51.40;;;;;;5045066;28;20437;-40
2021/09/22 09:35:23;;;;;;;9.32;6.43;;;17.80;52.10;;;;;;5044544;28;20088;-40
2021/09/22 09:38:07;;;;;;;8.52;5.85;;;18.00;52.10;;;;;;5044545;28;20035;-41
2021/09/22 09:40:52;;;;;;;9.07;5.85;;;18.10;51.00;;;;;;5029500;28;20036;-41
2021/09/22 09:43:46;;;;;;;9.90;6.00;;;18.20;50.20;;;;;;5044809;28;20089;-40
2021/09/22 09:46:30;;;;;;;7.20;5.25;;;18.30;51.00;;;;;;5044380;28;20108;-40
2021/09/22 09:49:27;;;;;;;7.47;5.63;;;18.30;50.50;;;;;;5044228;28;20217;-41
2021/09/22 09:52:11;;;;;;;7.93;5.80;;;18.40;51.00;;;;;;5044284;28;20040;-40
2021/09/22 09:54:55;;;;;;;11.23;5.82;;;18.50;50.10;;;;;;5043550;28;20232;-40
2021/09/22 09:57:46;;;;;;;9.20;5.90;;;18.60;49.20;;;;;;5044016;28;20034;-40
2021/09/22 10:00:39;;;;;;;7.13;4.13;;;18.70;50.40;;;;;;5044566;28;20350;-40
2021/09/22 10:03:23;;;;;;;6.95;4.20;;;18.80;50.10;;;;;;5044219;28;20209;-40
2021/09/22 10:06:08;;;;;;;5.50;3.85;;;18.80;50.90;;;;;;5042591;28;20033;-40
2021/09/22 10:08:52;;;;;;;7.13;3.40;;;19.00;51.00;;;;;;5042982;28;20098;-41
2021/09/22 10:11:37;;;;;;;8.95;3.58;;;19.20;51.20;;;;;;5043755;28;20075;-40
2021/09/22 10:14:21;;;;;;;7.40;3.63;;;19.30;50.40;;;;;;5044392;28;20063;-40
2021/09/22 10:17:05;;;;;;;4.65;3.00;;;19.30;50.20;;;;;;5042953;28;20224;-40
2021/09/22 10:19:49;;;;;;;4.90;2.70;;;19.30;50.40;;;;;;5043923;28;20040;-40
2021/09/22 10:22:33;;;;;;;4.43;3.00;;;19.40;49.90;;;;;;5028980;28;20030;-41
2021/09/22 10:25:19;;;;;;;5.53;2.90;;;19.60;50.50;;;;;;5043703;28;20169;-40
2021/09/22 10:28:04;;;;;;;3.88;2.83;;;19.60;49.70;;;;;;5042892;28;20037;-40
2021/09/22 10:30:48;;;;;;;7.50;2.85;;;19.80;50.20;;;;;;5044051;28;20072;-41
2021/09/22 10:33:34;;;;;;;4.90;3.50;;;19.80;49.60;;;;;;5044046;28;20244;-40
2021/09/22 10:36:25;;;;;;;5.50;3.65;;;19.80;49.20;;;;;;5043894;28;20037;-40
2021/09/22 10:39:10;;;;;;;7.32;3.95;;;20.00;50.20;;;;;;5029855;28;20071;-41
2021/09/22 10:41:54;;;;;;;5.82;3.95;;;20.00;48.70;;;;;;5043731;28;20061;-40
2021/09/22 10:44:39;;;;;;;6.05;4.22;;;20.00;48.80;;;;;;5043352;28;20036;-41
2021/09/22 10:47:27;;;;;;;7.65;3.83;;;20.10;49.20;;;;;;5043481;28;20201;-40
2021/09/22 10:50:14;;;;;;;7.32;4.32;;;20.10;49.80;;;;;;5043480;28;20033;-40
2021/09/22 10:52:58;;;;;;;4.65;3.60;;;20.10;48.90;;;;;;5043634;28;20032;-40
2021/09/22 10:56:01;;;;;;;6.05;3.72;;;20.00;49.80;;;;;;5043595;28;20208;-40
2021/09/22 10:58:50;;;;;;;6.63;3.80;;;20.20;49.20;;;;;;5043316;28;20081;-40
2021/09/22 11:01:47;;;;;;;6.72;3.85;;;20.20;51.10;;;;;;5043679;28;20068;-40
2021/09/22 11:04:54;;;;;;;5.43;3.67;;;20.30;50.90;;;;;;5043213;28;20063;-40
2021/09/22 11:07:59;;;;;;;11.65;5.35;;;20.30;49.20;;;;;;5050281;28;20063;-40
2021/09/22 11:10:53;;;;;;;7.88;4.00;;;20.10;49.80;;;;;;5043183;28;20036;-40
2021/09/22 11:13:38;;;;;;;9.95;4.93;;;20.10;50.00;;;;;;5043679;28;20214;-41
2021/09/22 11:16:23;;;;;;;6.38;4.68;;;20.10;50.70;;;;;;5043297;28;20072;-40
2021/09/22 11:19:09;;;;;;;6.53;4.70;;;20.20;50.60;;;;;;5046509;28;20035;-41
2021/09/22 11:21:53;;;;;;;6.28;3.97;;;20.20;50.60;;;;;;5047350;28;20041;-40
2021/09/22 11:24:40;;;;;;;8.55;3.90;;;20.30;50.10;;;;;;5046567;28;20052;-41
2021/09/22 11:27:25;;;;;;;5.38;4.25;;;20.40;50.30;;;;;;5046823;28;20236;-40
2021/09/22 11:30:09;;;;;;;8.32;4.40;;;20.30;50.40;;;;;;5046806;28;20359;-40
2021/09/22 11:32:53;;;;;;;7.25;4.10;;;20.50;51.30;;;;;;5046776;28;20034;-41
2021/09/22 11:35:38;;;;;;;7.28;4.50;;;20.50;50.70;;;;;;5046862;28;20371;-41
2021/09/22 11:38:22;;;;;;;7.63;3.97;;;20.60;50.80;;;;;;5046641;28;20052;-40
2021/09/22 11:41:06;;;;;;;5.30;3.90;;;20.60;50.80;;;;;;5031754;28;20045;-40
2021/09/22 11:47:32;;;;;;;7.50;4.05;;;20.40;48.60;;;;;;5047023;28;20017;-40
2021/09/22 11:50:36;;;;;;;7.55;3.75;;;20.30;49.60;;;;;;5046549;28;20033;-40
2021/09/22 11:53:23;;;;;;;7.25;4.22;;;20.30;50.30;;;;;;5046531;28;20359;-40
2021/09/22 11:56:09;;;;;;;8.07;5.28;;;20.20;50.50;;;;;;5046351;28;20075;-40
2021/09/22 11:58:54;;;;;;;8.02;4.70;;;20.10;50.70;;;;;;5046289;28;20033;-40
2021/09/22 12:01:38;;;;;;;6.28;4.10;;;20.00;51.60;;;;;;5045808;28;20055;-40
2021/09/22 12:04:22;;;;;;;7.43;4.22;;;20.00;51.20;;;;;;5046376;28;20076;-40
2021/09/22 12:07:07;;;;;;;10.80;4.18;;;19.90;51.30;;;;;;5046376;28;20101;-39
2021/09/22 12:09:51;;;;;;;9.32;4.25;;;19.90;51.50;;;;;;5045666;28;20075;-40
2021/09/22 12:12:37;;;;;;;6.18;4.47;;;19.80;51.30;;;;;;5046420;28;20390;-40
2021/09/22 12:15:21;;;;;;;8.02;4.75;;;19.80;50.50;;;;;;5045988;28;20053;-40
2021/09/22 12:18:05;;;;;;;6.72;4.18;;;19.70;51.80;;;;;;5046080;28;20083;-40
2021/09/22 12:20:49;;;;;;;8.50;4.10;;;19.70;51.50;;;;;;5045837;28;20040;-40
2021/09/22 12:23:34;;;;;;;7.40;4.35;;;19.60;51.70;;;;;;5046024;28;20044;-40
2021/09/22 12:26:20;;;;;;;8.25;4.15;;;19.60;51.20;;;;;;5044923;28;20351;-40
2021/09/22 12:29:11;;;;;;;6.10;3.95;;;19.60;50.90;;;;;;5044973;28;20025;-40
2021/09/22 12:32:05;;;;;;;6.28;3.88;;;19.50;51.30;;;;;;5045690;28;20225;-40
2021/09/22 12:38:30;;;;;;;8.05;4.65;;;19.40;50.80;;;;;;5046155;28;20013;-40
2021/09/22 12:41:15;;;;;;;7.28;4.25;;;19.40;51.50;;;;;;5030751;28;20043;-40
2021/09/22 12:43:59;;;;;;;7.22;4.60;;;19.30;51.70;;;;;;5045603;28;20377;-40
2021/09/22 12:46:44;;;;;;;7.07;4.15;;;19.30;52.10;;;;;;5046156;28;20052;-41
2021/09/22 12:49:29;;;;;;;8.25;4.07;;;19.20;53.10;;;;;;5045630;28;20056;-40
2021/09/22 12:52:21;;;;;;;10.82;4.78;;;19.20;52.70;;;;;;5045522;28;20075;-40
2021/09/22 12:55:19;;;;;;;7.47;5.05;;;19.20;53.90;;;;;;5045501;28;20079;-40
2021/09/22 12:58:03;;;;;;;9.15;5.15;;;19.10;53.20;;;;;;5045358;28;20040;-40
2021/09/22 13:00:54;;;;;;;8.32;5.30;;;19.10;52.90;;;;;;5045876;28;20040;-40
2021/09/22 13:03:44;;;;;;;10.23;5.07;;;19.10;53.30;;;;;;5045187;28;20028;-40
2021/09/22 13:06:31;;;;;;;8.32;5.38;;;19.00;53.40;;;;;;5045168;28;20228;-40
2021/09/22 13:09:16;;;;;;;8.40;5.43;;;19.00;53.40;;;;;;5044926;28;20076;-40
2021/09/22 13:12:00;;;;;;;9.23;5.43;;;18.90;53.20;;;;;;5045170;28;20071;-40
2021/09/22 13:14:44;;;;;;;10.65;5.25;;;18.90;53.10;;;;;;5044854;28;20128;-40
2021/09/22 13:17:29;;;;;;;9.20;5.10;;;18.80;53.50;;;;;;5044781;28;20067;-40
2021/09/22 13:20:13;;;;;;;10.25;5.45;;;18.80;53.50;;;;;;5044807;28;20079;-40
2021/09/22 13:22:59;;;;;;;7.72;5.28;;;18.80;53.20;;;;;;5044490;28;20036;-40
2021/09/22 13:25:43;;;;;;;6.82;4.85;;;18.80;53.40;;;;;;5044406;28;20295;-41
2021/09/22 13:28:28;;;;;;;6.97;5.10;;;18.90;53.50;;;;;;5045126;28;20420;-40
2021/09/22 13:31:13;;;;;;;8.68;4.20;;;18.80;52.70;;;;;;5045269;28;20083;-40
2021/09/22 13:33:58;;;;;;;9.15;4.10;;;18.80;53.80;;;;;;5045037;28;20048;-42
2021/09/22 13:36:42;;;;;;;11.43;4.38;;;18.80;53.70;;;;;;5044836;28;20071;-40
2021/09/22 13:39:27;;;;;;;7.63;4.53;;;18.80;53.40;;;;;;5044435;28;20052;-40
2021/09/22 13:42:11;;;;;;;6.53;4.40;;;18.90;54.10;;;;;;5043395;28;20049;-40
2021/09/22 13:44:55;;;;;;;5.63;3.67;;;18.80;54.20;;;;;;5043718;28;20032;-40
2021/09/22 13:47:39;;;;;;;9.77;4.05;;;18.80;54.20;;;;;;5044450;28;20079;-40
2021/09/22 13:50:24;;;;;;;7.40;4.47;;;18.90;54.60;;;;;;5044301;28;20260;-40
2021/09/22 13:53:08;;;;;;;7.97;3.80;;;19.00;54.60;;;;;;5044082;28;20227;-40
2021/09/22 13:55:52;;;;;;;7.80;3.50;;;19.00;55.00;;;;;;5044180;28;20398;-40
2021/09/22 13:58:37;;;;;;;8.18;3.95;;;19.10;54.10;;;;;;5044551;28;20028;-40
2021/09/22 14:01:21;;;;;;;9.88;3.53;;;19.10;53.70;;;;;;5044559;28;20241;-40
2021/09/22 14:04:05;;;;;;;10.98;3.72;;;19.20;53.70;;;;;;5044155;28;20032;-40
2021/09/22 14:06:49;;;;;;;6.70;3.67;;;19.20;54.00;;;;;;5044465;28;20095;-40
2021/09/22 14:09:34;;;;;;;4.80;3.17;;;19.20;54.20;;;;;;5043860;28;20063;-40
2021/09/22 14:12:18;;;;;;;6.10;3.20;;;19.20;53.60;;;;;;5044112;28;20416;-40
2021/09/22 14:15:03;;;;;;;7.70;3.30;;;19.20;53.50;;;;;;5044120;28;20079;-39
2021/09/22 14:17:49;;;;;;;5.82;3.60;;;19.20;53.60;;;;;;5043733;28;20092;-40
2021/09/22 14:20:33;;;;;;;7.25;3.25;;;19.20;53.80;;;;;;5043939;28;20072;-40
2021/09/22 14:23:18;;;;;;;6.28;3.00;;;19.10;54.70;;;;;;5044085;28;20275;-42
2021/09/22 14:26:03;;;;;;;5.20;3.28;;;19.10;54.20;;;;;;5043613;28;20048;-40
2021/09/22 14:32:28;;;;;;;6.28;3.80;;;19.10;53.90;;;;;;5044138;28;20016;-40
2021/09/22 14:35:12;;;;;;;10.10;3.78;;;19.10;54.90;;;;;;5043555;28;20041;-40
2021/09/22 14:37:57;;;;;;;8.77;4.00;;;19.10;54.80;;;;;;5043506;28;20099;-40
2021/09/22 14:40:42;;;;;;;6.47;4.13;;;19.00;54.90;;;;;;5043745;28;20020;-40
2021/09/22 14:43:26;;;;;;;7.32;4.05;;;19.10;55.40;;;;;;5043489;28;20064;-40
2021/09/22 14:46:10;;;;;;;6.05;3.83;;;19.00;55.40;;;;;;5043623;28;20041;-40
2021/09/22 14:48:55;;;;;;;8.02;3.70;;;19.10;55.00;;;;;;5043949;28;20213;-40
2021/09/22 14:51:41;;;;;;;8.13;3.83;;;19.00;55.00;;;;;;5043963;28;20145;-41
2021/09/22 14:54:25;;;;;;;8.02;3.50;;;19.10;55.40;;;;;;5047229;28;20097;-40
2021/09/22 14:57:09;;;;;;;7.35;3.78;;;19.10;54.80;;;;;;5047907;28;20033;-40
2021/09/22 14:59:53;;;;;;;7.90;3.80;;;19.00;54.60;;;;;;5046854;28;20032;-40
2021/09/22 15:02:38;;;;;;;6.95;3.50;;;18.90;55.10;;;;;;5041050;28;20048;-40